Alex, Oklahoma
Current Conditions -  °F | °C
As of 4:55 AM on Monday 20 Oct 2014 (Local Time) from KOUN Reporting Station
Clear Clear  
Wind Chill: 13°   Ceiling: Unl
Heat Index: 13°   Visibility: 10mi
Dew Point: 12°   Wind: 5mph
Humidity: 94%   Direction: 190°S
Pressure: 30.04"   Gusts: NA
Location:  34.91°N, 97.78°W
Report Text: KOUN 200955Z AUTO 19004KT 10SM CLR 13/12 A3004 RMK AO2
Loading
Personal Weather Stations






























Interactive Weather Map
Tropical Storm Tracking
New forecast layout! Learn more

10-Day Weather Forecast

Advertisements
Track Severe Weather on mobile